Time;durP1;ratioP1;P1;durP2;ratioP2;P2;SDS_P1;SDS_P2;PMS_P1;PMS_P2;Temp;Humidity;BMP_temperature;BMP_pressure;BME280_temperature;BME280_humidity;BME280_pressure;Samples;Min_cycle;Max_cycle;Signal;HPM_P1;HPM_P2
2022/07/04 00:02:22;;;;;;;4.35;3.05;;;21.40;78.70;;;;;;5204662;28;20033;-72
2022/07/04 00:04:54;;;;;;;4.30;3.33;;;21.40;79.20;;;;;;5213507;28;20056;-72
2022/07/04 00:07:27;;;;;;;3.63;3.10;;;21.30;79.50;;;;;;5207757;28;20052;-72
2022/07/04 00:09:59;;;;;;;4.82;3.35;;;21.30;80.00;;;;;;5210377;28;20060;-72
2022/07/04 00:12:32;;;;;;;3.75;3.03;;;21.30;80.10;;;;;;5221763;28;20060;-72
2022/07/04 00:15:07;;;;;;;4.97;3.10;;;21.40;80.20;;;;;;5210331;28;20060;-72
2022/07/04 00:17:40;;;;;;;6.18;3.30;;;21.40;79.70;;;;;;5191096;28;20060;-70
2022/07/04 00:20:12;;;;;;;4.30;3.00;;;21.50;79.60;;;;;;5211459;28;20056;-71
2022/07/04 00:22:45;;;;;;;5.10;2.90;;;21.60;79.40;;;;;;5224929;28;20522;-72
2022/07/04 00:25:18;;;;;;;5.43;2.77;;;21.50;79.20;;;;;;5209840;28;20488;-73
2022/07/04 00:27:50;;;;;;;5.37;3.30;;;21.50;79.60;;;;;;5214179;28;20056;-73
2022/07/04 00:30:23;;;;;;;7.55;3.25;;;21.50;79.80;;;;;;5204210;28;20127;-72
2022/07/04 00:32:55;;;;;;;4.18;3.42;;;21.60;79.30;;;;;;5209144;28;20102;-72
2022/07/04 00:35:27;;;;;;;5.40;3.15;;;21.60;79.20;;;;;;5209097;28;20385;-71
2022/07/04 00:38:00;;;;;;;4.57;2.67;;;21.60;79.50;;;;;;5210860;28;20795;-73
2022/07/04 00:40:33;;;;;;;4.30;2.80;;;21.60;79.40;;;;;;5207777;28;20045;-70
2022/07/04 00:43:06;;;;;;;3.53;2.83;;;21.70;79.50;;;;;;5215272;28;20509;-72
2022/07/04 00:45:38;;;;;;;3.30;2.60;;;21.70;79.10;;;;;;5208802;28;20045;-72
2022/07/04 00:48:11;;;;;;;4.15;3.00;;;21.70;79.20;;;;;;5208609;28;20045;-72
2022/07/04 00:50:46;;;;;;;5.47;2.72;;;21.80;79.10;;;;;;5206768;28;20052;-71
2022/07/04 00:53:21;;;;;;;4.97;3.00;;;21.80;78.70;;;;;;5221406;28;20057;-72
2022/07/04 00:55:54;;;;;;;4.28;2.83;;;21.90;78.80;;;;;;5201861;28;20057;-70
2022/07/04 00:58:26;;;;;;;5.03;2.70;;;21.90;78.70;;;;;;5212004;28;20983;-73
2022/07/04 01:00:59;;;;;;;6.15;2.78;;;21.90;79.10;;;;;;5209378;28;20079;-73
2022/07/04 01:03:31;;;;;;;3.20;2.90;;;21.90;79.80;;;;;;5211259;28;20049;-71
2022/07/04 01:06:08;;;;;;;3.42;2.80;;;21.80;81.60;;;;;;5207102;28;20041;-71
2022/07/04 01:08:42;;;;;;;3.20;2.90;;;21.80;83.50;;;;;;5207394;28;20041;-71
2022/07/04 01:11:15;;;;;;;4.75;2.75;;;21.80;84.80;;;;;;5205430;28;20083;-72
2022/07/04 01:13:47;;;;;;;4.63;3.42;;;21.70;85.50;;;;;;5213433;28;20052;-72
2022/07/04 01:16:20;;;;;;;5.47;2.87;;;21.60;86.10;;;;;;5211341;28;20125;-73
2022/07/04 01:18:56;;;;;;;4.33;3.13;;;21.60;85.80;;;;;;5212851;28;20286;-71
2022/07/04 01:21:31;;;;;;;6.28;3.17;;;21.50;86.10;;;;;;5219134;22;20813;-74
2022/07/04 01:24:03;;;;;;;4.28;2.90;;;21.60;86.60;;;;;;5208362;28;20509;-73
2022/07/04 01:26:36;;;;;;;3.63;2.83;;;21.50;86.90;;;;;;5192650;28;20781;-73
2022/07/04 01:29:08;;;;;;;3.55;2.78;;;21.50;86.20;;;;;;5207051;28;20041;-74
2022/07/04 01:31:41;;;;;;;4.03;3.03;;;21.50;87.30;;;;;;5202739;28;20534;-74
2022/07/04 01:34:14;;;;;;;3.53;3.03;;;21.50;87.40;;;;;;5205633;28;20057;-73
2022/07/04 01:36:46;;;;;;;4.15;3.33;;;21.50;88.80;;;;;;5207961;28;20060;-74
2022/07/04 01:39:19;;;;;;;6.07;3.17;;;21.40;88.20;;;;;;5208726;28;20056;-74
2022/07/04 01:41:52;;;;;;;5.00;3.35;;;21.40;90.10;;;;;;5201036;28;20056;-75
2022/07/04 01:44:24;;;;;;;7.80;3.47;;;21.30;90.70;;;;;;5201848;28;20064;-74
2022/07/04 01:46:56;;;;;;;4.50;3.08;;;21.30;89.30;;;;;;5206054;28;20055;-73
2022/07/04 01:49:29;;;;;;;6.00;3.20;;;21.30;88.80;;;;;;5206635;28;20048;-74
2022/07/04 01:52:02;;;;;;;5.25;3.00;;;21.30;88.70;;;;;;5206074;28;20067;-73
2022/07/04 01:54:34;;;;;;;5.25;3.10;;;21.30;88.30;;;;;;5204094;28;20088;-74
2022/07/04 01:57:07;;;;;;;3.65;3.28;;;21.40;87.90;;;;;;5204058;28;20056;-74
2022/07/04 02:02:31;;;;;;;4.20;3.25;;;21.40;88.20;;;;;;5210235;28;20041;-74
2022/07/04 02:05:05;;;;;;;6.05;3.25;;;21.40;88.50;;;;;;5206718;28;20060;-74
2022/07/04 02:07:37;;;;;;;3.55;3.25;;;21.30;88.60;;;;;;5212299;28;20047;-75
2022/07/04 02:10:10;;;;;;;5.40;3.60;;;21.40;88.20;;;;;;5207650;28;20053;-74
2022/07/04 02:13:01;;;;;;;3.35;3.08;;;21.40;88.30;;;;;;5210308;28;20160;-75
2022/07/04 02:15:36;;;;;;;6.35;3.08;;;21.20;88.20;;;;;;5205676;28;20063;-74
2022/07/04 02:18:10;;;;;;;3.50;3.20;;;21.30;87.90;;;;;;5212743;28;20045;-74
2022/07/04 02:20:42;;;;;;;4.15;2.80;;;21.30;87.50;;;;;;5209102;28;20041;-74
2022/07/04 02:23:15;;;;;;;2.78;2.40;;;21.20;87.70;;;;;;5193124;28;20743;-74
2022/07/04 02:25:47;;;;;;;5.47;2.88;;;21.20;87.70;;;;;;5206972;28;20045;-74
2022/07/04 02:28:20;;;;;;;4.63;2.95;;;21.30;87.50;;;;;;5211600;28;20516;-74
2022/07/04 02:30:52;;;;;;;3.90;2.78;;;21.20;88.00;;;;;;5209175;28;20583;-73
2022/07/04 02:33:25;;;;;;;3.60;2.50;;;21.20;88.30;;;;;;5195615;28;20163;-73
2022/07/04 02:35:57;;;;;;;3.22;2.90;;;21.10;88.90;;;;;;5209013;28;20802;-74
2022/07/04 02:38:30;;;;;;;4.28;2.97;;;21.10;89.20;;;;;;5209948;28;20061;-74
2022/07/04 02:41:02;;;;;;;3.50;2.70;;;21.10;89.50;;;;;;5196450;28;20045;-74
2022/07/04 02:43:35;;;;;;;3.07;2.60;;;21.00;90.00;;;;;;5201865;28;20044;-73
2022/07/04 02:46:07;;;;;;;6.15;2.85;;;21.00;90.00;;;;;;5197475;28;20307;-73
2022/07/04 02:48:40;;;;;;;4.07;2.80;;;20.90;90.30;;;;;;5204769;28;20040;-73
2022/07/04 02:51:12;;;;;;;5.28;2.80;;;20.90;90.80;;;;;;5195818;28;20680;-74
2022/07/04 02:53:45;;;;;;;5.77;2.83;;;20.80;90.60;;;;;;5215248;28;20044;-74
2022/07/04 02:56:18;;;;;;;7.82;3.03;;;20.80;90.70;;;;;;5201930;28;20049;-74
2022/07/04 02:58:51;;;;;;;3.40;2.40;;;20.80;90.90;;;;;;5207340;28;20053;-74
2022/07/04 03:01:23;;;;;;;3.42;2.80;;;20.70;90.90;;;;;;5199530;28;20037;-74
2022/07/04 03:03:56;;;;;;;5.18;2.35;;;20.70;90.90;;;;;;5191793;28;20048;-71
2022/07/04 03:06:28;;;;;;;4.43;2.50;;;20.70;90.90;;;;;;5207317;28;20068;-71
2022/07/04 03:09:01;;;;;;;3.63;2.10;;;20.80;90.80;;;;;;5209147;28;20044;-71
2022/07/04 03:11:33;;;;;;;3.33;2.55;;;20.80;90.60;;;;;;5203175;28;20962;-73
2022/07/04 03:14:06;;;;;;;3.10;2.60;;;20.80;90.80;;;;;;5207369;28;20061;-72
2022/07/04 03:16:38;;;;;;;4.63;2.50;;;20.70;91.10;;;;;;5210301;28;20468;-72
2022/07/04 03:19:11;;;;;;;2.90;2.60;;;20.70;91.30;;;;;;5209415;28;20037;-71
2022/07/04 03:21:43;;;;;;;3.42;2.42;;;20.70;91.80;;;;;;5204041;28;20515;-71
2022/07/04 03:24:16;;;;;;;4.63;2.40;;;20.60;92.40;;;;;;5204516;28;20033;-72
2022/07/04 03:26:48;;;;;;;2.75;2.25;;;20.60;92.10;;;;;;5206907;28;20049;-72
2022/07/04 03:29:21;;;;;;;7.57;2.87;;;20.30;92.70;;;;;;5209321;28;20037;-73
2022/07/04 03:31:53;;;;;;;3.58;2.60;;;20.30;93.00;;;;;;5209791;28;20045;-71
2022/07/04 03:34:26;;;;;;;3.05;2.35;;;20.30;93.20;;;;;;5206669;28;20504;-71
2022/07/04 03:36:59;;;;;;;3.13;2.47;;;;;;;;;;5204315;28;20045;-71
2022/07/04 03:39:31;;;;;;;3.22;2.70;;;;;;;;;;5207973;28;20909;-72
2022/07/04 03:42:05;;;;;;;8.70;2.53;;;;;;;;;;5204789;28;20080;-72
2022/07/04 03:44:38;;;;;;;4.50;2.58;;;;;;;;;;5195707;28;20045;-72
2022/07/04 03:47:10;;;;;;;3.90;2.63;;;;;;;;;;5203476;28;20045;-72
2022/07/04 03:49:43;;;;;;;5.47;2.57;;;;;;;;;;5207792;28;20049;-72
2022/07/04 03:52:16;;;;;;;3.70;2.50;;;;;;;;;;5207588;28;20060;-72
2022/07/04 03:54:48;;;;;;;4.90;3.10;;;;;;;;;;5206358;28;20417;-71
2022/07/04 03:57:22;;;;;;;5.60;3.33;;;;;;;;;;5204981;28;20049;-71
2022/07/04 03:59:54;;;;;;;8.80;2.87;;;20.20;96.80;;;;;;5207920;28;20056;-73
2022/07/04 04:02:26;;;;;;;3.90;2.72;;;20.20;96.40;;;;;;5201940;28;20044;-72
2022/07/04 04:07:50;;;;;;;3.05;2.75;;;20.10;98.30;;;;;;5209726;28;20041;-72
2022/07/04 04:10:24;;;;;;;4.90;2.60;;;20.10;99.30;;;;;;5203521;28;20044;-72
2022/07/04 04:12:57;;;;;;;3.65;2.75;;;20.10;99.90;;;;;;5205832;28;20072;-71
2022/07/04 04:15:30;;;;;;;3.55;2.80;;;20.10;99.90;;;;;;5210527;28;20056;-72
2022/07/04 04:18:03;;;;;;;4.13;2.72;;;20.10;99.90;;;;;;5221189;28;20087;-72
2022/07/04 04:20:36;;;;;;;3.70;2.78;;;20.10;99.90;;;;;;5206017;28;20048;-72
2022/07/04 04:23:08;;;;;;;5.97;2.67;;;20.20;99.90;;;;;;5181917;28;20056;-72
2022/07/04 04:25:41;;;;;;;4.05;2.70;;;20.20;99.90;;;;;;5206634;28;20051;-72
2022/07/04 04:28:13;;;;;;;4.40;3.10;;;20.20;99.90;;;;;;5208144;28;20055;-71
2022/07/04 04:30:46;;;;;;;3.03;2.33;;;20.20;99.90;;;;;;5198668;28;20049;-71
2022/07/04 04:33:18;;;;;;;2.75;2.42;;;20.30;99.90;;;;;;5208536;28;20603;-71
2022/07/04 04:35:51;;;;;;;3.42;2.75;;;20.30;99.90;;;;;;5205326;28;20045;-70
2022/07/04 04:38:23;;;;;;;3.42;2.55;;;20.30;99.90;;;;;;5208326;28;20049;-71
2022/07/04 04:40:56;;;;;;;3.28;2.88;;;20.30;99.90;;;;;;5208070;28;20048;-72
2022/07/04 04:43:28;;;;;;;5.25;2.67;;;20.30;99.90;;;;;;5195282;28;20049;-72
2022/07/04 04:46:00;;;;;;;3.13;2.40;;;20.40;99.90;;;;;;5210059;28;20045;-71
2022/07/04 04:48:33;;;;;;;4.73;2.60;;;20.50;99.90;;;;;;5197819;28;20045;-72
2022/07/04 04:51:06;;;;;;;4.47;2.38;;;20.50;99.90;;;;;;5198997;28;20444;-72
2022/07/04 04:53:40;;;;;;;2.95;2.53;;;20.50;99.90;;;;;;5190028;28;20060;-72
2022/07/04 04:56:13;;;;;;;4.53;3.10;;;20.60;99.90;;;;;;5198780;28;20422;-72
2022/07/04 04:58:46;;;;;;;4.85;3.05;;;20.70;99.90;;;;;;5202065;28;20053;-70
2022/07/04 05:01:18;;;;;;;2.97;2.47;;;20.60;99.90;;;;;;5199387;28;20052;-72
2022/07/04 05:04:11;;;;;;;3.83;2.40;;;20.60;99.90;;;;;;5203366;28;20050;-72
2022/07/04 05:06:43;;;;;;;4.53;2.90;;;20.80;99.90;;;;;;5200640;28;20040;-71
2022/07/04 05:09:16;;;;;;;2.72;2.40;;;20.90;99.70;;;;;;5201397;28;20315;-70
2022/07/04 05:11:48;;;;;;;4.03;2.90;;;20.80;99.40;;;;;;5201665;28;20049;-71
2022/07/04 05:14:21;;;;;;;5.15;2.70;;;20.80;99.90;;;;;;5196606;28;20049;-71
2022/07/04 05:16:53;;;;;;;2.60;2.40;;;20.80;99.90;;;;;;5201990;28;20048;-73
2022/07/04 05:19:26;;;;;;;3.70;2.63;;;20.70;99.90;;;;;;5194149;28;21357;-72
2022/07/04 05:21:58;;;;;;;3.67;2.75;;;20.70;99.90;;;;;;5198528;28;20472;-73
2022/07/04 05:24:31;;;;;;;4.60;2.83;;;20.70;99.90;;;;;;5200574;28;20060;-72
2022/07/04 05:27:03;;;;;;;3.78;2.80;;;20.80;99.90;;;;;;5197840;28;20045;-71
2022/07/04 05:29:37;;;;;;;3.53;2.78;;;20.80;99.90;;;;;;5190616;28;20547;-72
2022/07/04 05:32:09;;;;;;;2.97;2.53;;;20.80;99.90;;;;;;5196232;28;21013;-70
2022/07/04 05:34:42;;;;;;;4.22;2.97;;;20.80;99.90;;;;;;5194187;28;20085;-71
2022/07/04 05:37:15;;;;;;;4.57;3.30;;;20.70;99.90;;;;;;5195290;28;20055;-72
2022/07/04 05:39:49;;;;;;;3.85;3.05;;;20.70;99.90;;;;;;5198609;28;20052;-71
2022/07/04 05:42:21;;;;;;;5.90;2.63;;;20.60;99.90;;;;;;5204623;28;20064;-72
2022/07/04 05:44:54;;;;;;;4.85;3.25;;;20.60;99.90;;;;;;5207799;28;20712;-72
2022/07/04 05:47:26;;;;;;;3.08;2.83;;;20.50;99.90;;;;;;5201753;28;20524;-72
2022/07/04 05:50:00;;;;;;;3.35;2.95;;;20.40;99.90;;;;;;5208577;28;20049;-71
2022/07/04 05:52:32;;;;;;;6.75;3.15;;;20.40;99.90;;;;;;5208259;28;20189;-72
2022/07/04 05:55:06;;;;;;;8.25;3.50;;;20.40;99.90;;;;;;5189861;28;20048;-72
2022/07/04 05:57:38;;;;;;;5.20;3.20;;;20.30;99.90;;;;;;5229334;28;20135;-73
2022/07/04 06:00:16;;;;;;;4.50;3.17;;;20.30;99.90;;;;;;5189614;28;20040;-72
2022/07/04 06:02:49;;;;;;;4.53;2.80;;;20.10;99.90;;;;;;5204130;28;20991;-72
2022/07/04 06:05:22;;;;;;;3.50;3.20;;;20.10;99.90;;;;;;5207698;28;20041;-72
2022/07/04 06:07:54;;;;;;;4.22;2.85;;;20.00;99.90;;;;;;5214949;28;20275;-71
2022/07/04 06:10:27;;;;;;;5.85;2.95;;;20.00;99.90;;;;;;5198107;28;20067;-72
2022/07/04 06:12:59;;;;;;;5.07;3.07;;;20.00;99.90;;;;;;5203335;28;20684;-70
2022/07/04 06:15:32;;;;;;;4.95;3.13;;;20.00;99.90;;;;;;5202682;28;20312;-73
2022/07/04 06:18:04;;;;;;;3.67;3.10;;;20.10;99.90;;;;;;5202757;28;20048;-73
2022/07/04 06:20:39;;;;;;;7.50;3.10;;;20.20;99.90;;;;;;5202619;28;20060;-71
2022/07/04 06:23:12;;;;;;;4.40;3.20;;;20.20;99.90;;;;;;5204467;28;20052;-70
2022/07/04 06:25:45;;;;;;;4.60;3.45;;;20.20;99.90;;;;;;5202863;28;20045;-72
2022/07/04 06:28:17;;;;;;;4.88;3.40;;;20.20;99.90;;;;;;5202993;28;20044;-73
2022/07/04 06:31:11;;;;;;;5.13;3.33;;;20.30;99.90;;;;;;5204063;28;20521;-73
2022/07/04 06:36:35;;;;;;;6.05;3.25;;;20.30;99.90;;;;;;5203876;28;20484;-73
2022/07/04 06:39:08;;;;;;;3.03;2.77;;;20.40;99.90;;;;;;5204425;28;20045;-72
2022/07/04 06:41:40;;;;;;;5.45;2.80;;;20.50;99.90;;;;;;5202177;28;20041;-71
2022/07/04 06:44:12;;;;;;;4.35;3.45;;;20.60;99.90;;;;;;5199460;28;20044;-71
2022/07/04 06:46:46;;;;;;;3.23;2.87;;;20.70;99.90;;;;;;5207739;28;20055;-71
2022/07/04 06:49:18;;;;;;;5.47;2.88;;;20.80;99.90;;;;;;5202823;28;20903;-71
2022/07/04 06:51:50;;;;;;;3.55;2.67;;;21.00;99.90;;;;;;5207700;28;20444;-71
2022/07/04 06:54:23;;;;;;;4.60;3.03;;;21.10;99.90;;;;;;5206610;28;20067;-72
2022/07/04 06:56:56;;;;;;;6.00;3.08;;;21.10;99.90;;;;;;5211842;28;20056;-72
2022/07/04 06:59:48;;;;;;;3.17;2.88;;;21.20;99.90;;;;;;5208769;28;20142;-71
2022/07/04 07:02:21;;;;;;;7.97;3.20;;;21.20;99.90;;;;;;5207544;28;20670;-72
2022/07/04 07:04:56;;;;;;;5.60;2.83;;;21.20;99.90;;;;;;5211505;28;20048;-72
2022/07/04 07:07:29;;;;;;;6.55;2.63;;;21.20;99.90;;;;;;5197042;28;20299;-72
2022/07/04 07:10:02;;;;;;;3.10;2.60;;;21.20;99.90;;;;;;5207156;28;20652;-70
2022/07/04 07:12:35;;;;;;;;;;;21.10;99.90;;;;;;5211496;28;20045;-72
2022/07/04 07:15:08;;;;;;;3.33;2.40;;;21.10;99.90;;;;;;5210730;28;19921;-72
2022/07/04 07:17:40;;;;;;;2.75;2.30;;;21.00;99.90;;;;;;5211521;28;20069;-71
2022/07/04 07:20:13;;;;;;;5.18;2.58;;;20.90;99.90;;;;;;5211763;28;20064;-71
2022/07/04 07:22:46;;;;;;;7.47;2.25;;;20.90;99.90;;;;;;5198855;28;20053;-72
2022/07/04 07:25:19;;;;;;;3.50;2.60;;;20.90;99.90;;;;;;5198988;28;20064;-71
2022/07/04 07:27:51;;;;;;;2.63;2.30;;;21.00;99.90;;;;;;5202393;28;20786;-73
2022/07/04 07:30:24;;;;;;;4.13;2.50;;;21.00;99.90;;;;;;5211723;28;20049;-71
2022/07/04 07:32:56;;;;;;;3.67;2.57;;;21.00;99.90;;;;;;5210415;28;20049;-72
2022/07/04 07:35:29;;;;;;;4.30;2.55;;;21.00;99.90;;;;;;5212418;28;20763;-72
2022/07/04 07:38:01;;;;;;;3.20;2.42;;;21.00;99.90;;;;;;5209974;28;20045;-71
2022/07/04 07:40:34;;;;;;;4.43;2.55;;;21.00;99.90;;;;;;5209900;28;20044;-71
2022/07/04 07:43:07;;;;;;;3.65;2.65;;;20.90;99.90;;;;;;5211492;28;20570;-72
2022/07/04 07:45:40;;;;;;;;;;;20.80;99.90;;;;;;5208305;28;20619;-72
2022/07/04 07:48:12;;;;;;;3.97;2.90;;;20.70;99.90;;;;;;5211600;28;19929;-72
2022/07/04 07:50:45;;;;;;;4.60;2.90;;;20.80;99.90;;;;;;5210787;28;20444;-71
2022/07/04 07:53:17;;;;;;;5.20;2.88;;;20.70;99.90;;;;;;5209381;28;20068;-72
2022/07/04 07:55:49;;;;;;;3.05;2.67;;;20.70;99.90;;;;;;5211259;28;20056;-72
2022/07/04 07:58:22;;;;;;;3.45;2.58;;;20.70;99.90;;;;;;5211223;28;20045;-72
2022/07/04 08:00:55;;;;;;;2.88;2.42;;;20.60;99.90;;;;;;5211208;28;20053;-71
2022/07/04 08:06:20;;;;;;;7.32;2.85;;;20.70;99.90;;;;;;5206733;28;20052;-70
2022/07/04 08:08:52;;;;;;;6.82;2.95;;;20.80;99.90;;;;;;5201490;28;20053;-72
2022/07/04 08:11:25;;;;;;;6.30;2.70;;;20.80;99.90;;;;;;5210703;28;20049;-72
2022/07/04 08:13:58;;;;;;;3.25;2.35;;;20.80;99.90;;;;;;5211785;28;20068;-71
2022/07/04 08:16:30;;;;;;;4.68;2.58;;;20.90;99.90;;;;;;5210734;28;20072;-71
2022/07/04 08:19:24;;;;;;;3.83;2.50;;;21.00;99.90;;;;;;5209920;28;20067;-72
2022/07/04 08:21:56;;;;;;;4.57;2.88;;;21.00;99.90;;;;;;5209864;28;20060;-70
2022/07/04 08:24:46;;;;;;;5.03;2.78;;;21.10;99.90;;;;;;5210744;28;20049;-72
2022/07/04 08:27:19;;;;;;;3.85;2.85;;;21.20;99.90;;;;;;5210878;28;20505;-72
2022/07/04 08:29:51;;;;;;;4.85;2.65;;;21.30;99.90;;;;;;5211677;28;20052;-72
2022/07/04 08:32:24;;;;;;;4.90;3.20;;;21.30;99.90;;;;;;5209340;28;20055;-69
2022/07/04 08:34:56;;;;;;;6.18;3.20;;;21.40;99.90;;;;;;5208802;28;20048;-71
2022/07/04 08:37:29;;;;;;;4.80;2.90;;;21.50;99.90;;;;;;5207681;28;20067;-72
2022/07/04 08:40:06;;;;;;;3.85;2.67;;;21.60;99.90;;;;;;5203367;28;20045;-72
2022/07/04 08:42:39;;;;;;;4.05;2.70;;;21.60;99.90;;;;;;5204152;28;20579;-72
2022/07/04 08:45:14;;;;;;;4.13;2.80;;;21.70;99.90;;;;;;5211205;28;20385;-71
2022/07/04 08:47:52;;;;;;;3.53;2.50;;;21.90;99.90;;;;;;5201658;28;20049;-72
2022/07/04 08:50:33;;;;;;;4.15;2.47;;;21.90;99.90;;;;;;5218587;28;20432;-71
2022/07/04 08:53:14;;;;;;;2.30;2.10;;;22.10;99.90;;;;;;5207228;28;20059;-71
2022/07/04 08:58:39;;;;;;;7.45;2.83;;;22.20;99.40;;;;;;5204168;28;20056;-73
2022/07/04 09:01:15;;;;;;;2.72;2.38;;;22.30;99.20;;;;;;5207547;28;20429;-70
2022/07/04 09:03:50;;;;;;;3.42;2.30;;;22.40;98.50;;;;;;5207681;28;20511;-72
2022/07/04 09:06:24;;;;;;;3.75;2.42;;;22.40;97.80;;;;;;5204070;28;20049;-72
2022/07/04 09:08:56;;;;;;;3.60;2.38;;;22.60;97.10;;;;;;5206582;28;21155;-72
2022/07/04 09:11:29;;;;;;;6.93;2.63;;;22.60;96.50;;;;;;5204732;28;20033;-71
2022/07/04 09:14:01;;;;;;;2.47;2.28;;;22.80;95.30;;;;;;5209179;28;20064;-71
2022/07/04 09:16:34;;;;;;;4.93;2.47;;;22.80;94.40;;;;;;5209460;28;20052;-72
2022/07/04 09:19:20;;;;;;;9.65;3.35;;;22.90;94.50;;;;;;5209549;28;20045;-71
2022/07/04 09:21:52;;;;;;;5.25;2.45;;;23.10;95.20;;;;;;5207701;28;20505;-71
2022/07/04 09:24:44;;;;;;;4.40;2.33;;;23.20;92.50;;;;;;5204801;28;20084;-71
2022/07/04 09:27:34;;;;;;;5.40;2.63;;;23.30;91.90;;;;;;5200337;28;20295;-71
2022/07/04 09:30:08;;;;;;;2.65;2.25;;;23.30;91.80;;;;;;5209427;28;20045;-72
2022/07/04 09:32:44;;;;;;;4.60;2.10;;;23.60;92.10;;;;;;5205696;28;20489;-70
2022/07/04 09:35:19;;;;;;;2.80;2.33;;;23.80;90.10;;;;;;5202232;28;20061;-70
2022/07/04 09:37:54;;;;;;;3.35;2.15;;;23.90;87.90;;;;;;5205765;28;20064;-72
2022/07/04 09:40:33;;;;;;;4.05;2.00;;;24.10;85.10;;;;;;5206957;28;20048;-72
2022/07/04 09:43:11;;;;;;;2.20;1.80;;;24.20;85.90;;;;;;5204627;28;20632;-72
2022/07/04 09:45:58;;;;;;;4.30;2.65;;;24.40;85.40;;;;;;5197024;28;20048;-71
2022/07/04 09:48:51;;;;;;;2.78;2.08;;;24.40;80.80;;;;;;5203674;28;20051;-71
2022/07/04 09:51:47;;;;;;;3.67;2.00;;;24.70;81.30;;;;;;5203443;28;20048;-71
2022/07/04 09:54:28;;;;;;;4.68;1.85;;;24.80;79.20;;;;;;5189825;28;20057;-72
2022/07/04 09:57:02;;;;;;;3.58;1.90;;;25.00;79.30;;;;;;5190118;28;20045;-71
2022/07/04 09:59:35;;;;;;;3.85;2.30;;;24.90;78.20;;;;;;5195995;28;20037;-70
2022/07/04 10:02:13;;;;;;;5.10;2.00;;;25.00;78.30;;;;;;5193083;28;20068;-72
2022/07/04 10:04:49;;;;;;;2.20;1.80;;;25.10;76.70;;;;;;5199707;28;20425;-72
2022/07/04 10:07:47;;;;;;;3.72;1.98;;;25.20;77.30;;;;;;5204085;28;20049;-72
2022/07/04 10:10:27;;;;;;;2.38;1.90;;;25.30;75.60;;;;;;5200800;28;20623;-72
2022/07/04 10:13:08;;;;;;;3.08;1.90;;;25.40;74.60;;;;;;5219899;28;20052;-72
2022/07/04 10:15:42;;;;;;;2.65;1.70;;;25.40;74.70;;;;;;5203816;28;20049;-72
2022/07/04 10:18:21;;;;;;;4.80;1.92;;;25.40;73.40;;;;;;5204226;28;20733;-72
2022/07/04 10:20:54;;;;;;;3.05;1.77;;;25.30;73.70;;;;;;5206475;28;20417;-71
2022/07/04 10:23:31;;;;;;;3.45;1.80;;;25.20;74.40;;;;;;5207535;28;20068;-71
2022/07/04 10:26:04;;;;;;;3.03;1.80;;;25.30;72.90;;;;;;5208687;28;20044;-72
2022/07/04 10:28:38;;;;;;;2.47;1.80;;;25.40;70.20;;;;;;5200809;28;20033;-72
2022/07/04 10:31:12;;;;;;;3.63;1.90;;;25.20;71.30;;;;;;5204947;28;20049;-72
2022/07/04 10:33:46;;;;;;;6.20;2.05;;;25.10;70.90;;;;;;5188700;28;20060;-72
2022/07/04 10:36:27;;;;;;;3.22;1.60;;;25.00;72.70;;;;;;5204979;28;20064;-72
2022/07/04 10:39:02;;;;;;;2.13;1.88;;;25.00;72.40;;;;;;5195452;28;20718;-70
2022/07/04 10:41:34;;;;;;;3.97;1.98;;;25.00;72.50;;;;;;5212536;28;20481;-73
2022/07/04 10:44:13;;;;;;;3.80;1.90;;;25.10;72.80;;;;;;5202885;28;20060;-71
2022/07/04 10:46:48;;;;;;;5.07;1.88;;;25.10;74.60;;;;;;5204516;28;20099;-73
2022/07/04 10:49:23;;;;;;;4.28;2.10;;;25.30;72.60;;;;;;5205614;28;20063;-72
2022/07/04 10:52:01;;;;;;;3.88;1.88;;;25.30;73.70;;;;;;5205539;28;20052;-72
2022/07/04 10:54:37;;;;;;;3.22;1.77;;;25.40;72.10;;;;;;5203434;28;20052;-72
2022/07/04 10:57:20;;;;;;;2.55;2.03;;;25.50;73.40;;;;;;5189117;28;20631;-72
2022/07/04 10:59:52;;;;;;;2.30;2.10;;;25.70;74.50;;;;;;5189317;28;20053;-72
2022/07/04 11:02:34;;;;;;;2.07;1.87;;;25.70;72.90;;;;;;5198148;28;20641;-73
2022/07/04 11:05:12;;;;;;;3.50;2.00;;;25.60;72.10;;;;;;5211448;28;20049;-73
2022/07/04 11:07:44;;;;;;;2.55;2.03;;;25.50;73.90;;;;;;5210815;28;20037;-73
2022/07/04 11:12:57;;;;;;;3.80;2.22;;;25.60;73.90;;;;;;5211957;28;20056;-71
2022/07/04 11:15:33;;;;;;;3.30;2.05;;;25.60;72.20;;;;;;5211426;28;20597;-72
2022/07/04 11:18:14;;;;;;;3.33;2.05;;;25.60;72.40;;;;;;5212029;28;20643;-72
2022/07/04 11:20:47;;;;;;;2.25;2.00;;;25.60;70.10;;;;;;5190112;28;20063;-71
2022/07/04 11:23:20;;;;;;;2.33;2.13;;;25.60;69.80;;;;;;5206116;28;20436;-71
2022/07/04 11:25:55;;;;;;;3.42;2.17;;;25.60;69.80;;;;;;5206579;28;20228;-72
2022/07/04 11:28:32;;;;;;;3.28;2.13;;;25.70;69.60;;;;;;5208130;28;20052;-72
2022/07/04 11:31:15;;;;;;;4.07;2.00;;;25.90;69.60;;;;;;5205669;28;20528;-72
2022/07/04 11:33:54;;;;;;;4.72;2.10;;;26.30;69.40;;;;;;5203058;28;20060;-71
2022/07/04 11:36:26;;;;;;;4.20;2.25;;;26.60;67.50;;;;;;5206230;28;20057;-72
2022/07/04 11:39:03;;;;;;;3.40;1.90;;;26.70;67.40;;;;;;5204751;28;20048;-72
2022/07/04 11:47:35;;;;;;;4.72;2.15;;;27.20;66.10;;;;;;5198053;28;20398;-72
2022/07/04 11:50:18;;;;;;;2.75;2.17;;;27.60;65.90;;;;;;5205875;28;20056;-72
2022/07/04 11:52:53;;;;;;;2.17;1.75;;;27.70;68.00;;;;;;5200043;28;20489;-71
2022/07/04 11:55:57;;;;;;;3.05;2.08;;;28.50;67.00;;;;;;5203822;28;20057;-72
2022/07/04 11:58:40;;;;;;;3.13;2.40;;;28.80;62.50;;;;;;5207349;28;20049;-73
2022/07/04 12:01:26;;;;;;;4.50;2.50;;;28.90;63.10;;;;;;5203164;28;20040;-72
2022/07/04 12:04:15;;;;;;;4.95;1.92;;;28.60;62.70;;;;;;5208732;28;20056;-71
2022/07/04 12:06:48;;;;;;;2.55;2.03;;;28.70;60.20;;;;;;5206496;28;20060;-73
2022/07/04 12:09:21;;;;;;;5.90;2.10;;;29.10;62.80;;;;;;5204514;28;20553;-72
2022/07/04 12:11:58;;;;;;;4.15;2.55;;;28.80;60.40;;;;;;5203980;28;20050;-72
2022/07/04 12:14:31;;;;;;;5.03;2.30;;;28.90;61.80;;;;;;5198156;28;20060;-72
2022/07/04 12:17:29;;;;;;;2.30;1.63;;;29.40;60.60;;;;;;5210948;28;20045;-73
2022/07/04 12:20:14;;;;;;;3.92;1.60;;;29.40;58.20;;;;;;5203512;28;20063;-72
2022/07/04 12:22:53;;;;;;;5.00;2.05;;;29.70;59.70;;;;;;5210778;28;20425;-72
2022/07/04 12:25:38;;;;;;;4.60;1.98;;;29.20;58.80;;;;;;5208788;28;20045;-72
2022/07/04 12:28:16;;;;;;;2.60;1.80;;;29.80;60.10;;;;;;5210556;28;20432;-72
2022/07/04 12:30:56;;;;;;;2.58;1.88;;;29.60;57.00;;;;;;5203501;28;20127;-72
2022/07/04 12:33:29;;;;;;;4.68;1.90;;;29.90;59.20;;;;;;5217510;28;20052;-74
2022/07/04 12:36:03;;;;;;;2.13;1.80;;;30.20;58.10;;;;;;5206297;28;20060;-73
2022/07/04 12:38:39;;;;;;;2.97;1.98;;;30.30;57.30;;;;;;5197269;28;20045;-73
2022/07/04 12:41:15;;;;;;;2.33;1.98;;;30.00;57.50;;;;;;5196670;28;20057;-72
2022/07/04 12:43:51;;;;;;;4.15;2.03;;;29.80;57.80;;;;;;5161373;28;20662;-72
2022/07/04 12:46:28;;;;;;;4.10;2.00;;;29.80;57.90;;;;;;5183856;28;20045;-73
2022/07/04 12:49:02;;;;;;;5.07;1.90;;;30.00;58.60;;;;;;5192390;28;20044;-73
2022/07/04 12:51:35;;;;;;;2.90;2.10;;;30.00;57.80;;;;;;5190401;28;20053;-73
2022/07/04 12:54:10;;;;;;;3.20;2.00;;;29.70;57.60;;;;;;5188795;28;20056;-72
2022/07/04 12:56:45;;;;;;;3.88;2.03;;;29.60;57.90;;;;;;5191093;28;20072;-72
2022/07/04 12:59:20;;;;;;;2.97;2.00;;;29.60;58.60;;;;;;5190161;28;20056;-74
2022/07/04 13:01:53;;;;;;;2.50;2.10;;;29.70;60.40;;;;;;5188376;28;20056;-72
2022/07/04 13:04:25;;;;;;;2.50;1.70;;;29.80;58.00;;;;;;5191369;28;20052;-73
2022/07/04 13:06:59;;;;;;;4.68;2.17;;;29.40;55.40;;;;;;5194244;28;20038;-70
2022/07/04 13:09:32;;;;;;;2.35;1.83;;;29.60;56.80;;;;;;5190768;28;20052;-72
2022/07/04 13:14:57;;;;;;;4.38;1.80;;;29.20;57.90;;;;;;5188327;28;20075;-72
2022/07/04 13:17:30;;;;;;;4.30;1.98;;;29.60;57.10;;;;;;5210874;28;20049;-72
2022/07/04 13:20:04;;;;;;;5.03;2.10;;;29.40;55.60;;;;;;5201898;28;20047;-72
2022/07/04 13:22:36;;;;;;;5.30;2.40;;;29.80;58.50;;;;;;5197244;28;20058;-71
2022/07/04 13:25:09;;;;;;;5.67;2.47;;;29.90;57.50;;;;;;5189987;28;20060;-73
2022/07/04 13:27:41;;;;;;;5.00;1.98;;;29.90;56.30;;;;;;5198035;28;21406;-72
2022/07/04 13:30:14;;;;;;;1.90;1.70;;;30.10;56.10;;;;;;5205338;28;20041;-72
2022/07/04 13:32:46;;;;;;;2.40;2.00;;;30.20;57.00;;;;;;5195606;28;20057;-73
2022/07/04 13:35:19;;;;;;;3.05;1.80;;;30.50;55.90;;;;;;5194838;28;20405;-73
2022/07/04 13:37:52;;;;;;;4.40;2.00;;;30.90;55.80;;;;;;5192667;28;20052;-73
2022/07/04 13:40:31;;;;;;;3.45;2.08;;;30.90;54.60;;;;;;5195916;28;20057;-70
2022/07/04 13:43:09;;;;;;;3.88;2.00;;;30.90;54.50;;;;;;5188969;28;20060;-70
2022/07/04 13:45:48;;;;;;;1.77;1.67;;;30.70;54.60;;;;;;5181982;28;20057;-70
2022/07/04 13:48:21;;;;;;;1.77;1.52;;;30.70;53.80;;;;;;5187711;28;20060;-72
2022/07/04 13:50:54;;;;;;;2.05;1.80;;;30.60;54.10;;;;;;5186146;28;20045;-71
2022/07/04 13:53:27;;;;;;;2.60;2.03;;;30.40;56.00;;;;;;5194635;28;20044;-71
2022/07/04 13:56:00;;;;;;;;;;;30.50;54.30;;;;;;5204578;28;20045;-70